TimeEST,TemperatureF,Dew PointF,Humidity,Sea Level PressureIn,VisibilityMPH,Wind Direction,Wind SpeedMPH,Gust SpeedMPH,PrecipitationIn,Events,Conditions,WindDirDegrees,DateUTC
12:53 AM,3.0,-2.0,80,30.35,10.0,Calm,Calm,-,N/A,,Clear,0,2013-01-23 05:53:00
1:53 AM,1.9,-2.0,83,30.35,10.0,Calm,Calm,-,N/A,,Clear,0,2013-01-23 06:53:00
2:53 AM,1.9,-2.9,80,30.36,10.0,Calm,Calm,-,N/A,,Clear,0,2013-01-23 07:53:00
3:53 AM,1.9,-2.9,80,30.35,10.0,Calm,Calm,-,N/A,,Clear,0,2013-01-23 08:53:00
4:53 AM,1.9,-4.0,76,30.35,10.0,Calm,Calm,-,N/A,,Clear,0,2013-01-23 09:53:00
5:53 AM,1.0,-4.0,79,30.36,10.0,Calm,Calm,-,N/A,,Clear,0,2013-01-23 10:53:00
6:53 AM,1.0,-4.0,79,30.36,10.0,ESE,3.5,-,N/A,,Clear,120,2013-01-23 11:53:00
7:53 AM,1.9,-2.9,80,30.36,8.0,Calm,Calm,-,N/A,,Partly Cloudy,0,2013-01-23 12:53:00
8:53 AM,7.0,1.0,77,30.35,10.0,Calm,Calm,-,N/A,,Overcast,0,2013-01-23 13:53:00
9:53 AM,10.9,1.0,64,30.36,10.0,Variable,5.8,-,N/A,,Overcast,0,2013-01-23 14:53:00
10:53 AM,12.0,-0.0,59,30.36,10.0,SW,5.8,-,N/A,,Overcast,220,2013-01-23 15:53:00
11:53 AM,12.9,-0.0,56,30.33,10.0,SW,4.6,-,N/A,,Overcast,220,2013-01-23 16:53:00
12:53 PM,15.1,1.0,54,30.30,10.0,Calm,Calm,-,N/A,,Overcast,0,2013-01-23 17:53:00
1:53 PM,16.0,-0.0,49,30.27,10.0,WSW,3.5,-,N/A,,Overcast,240,2013-01-23 18:53:00
2:53 PM,17.1,-0.0,47,30.25,10.0,WSW,4.6,-,N/A,,Overcast,250,2013-01-23 19:53:00
3:53 PM,18.0,-0.0,45,30.23,10.0,SSW,6.9,-,N/A,,Overcast,210,2013-01-23 20:53:00
4:53 PM,18.0,1.9,50,30.21,10.0,SW,4.6,-,N/A,,Overcast,220,2013-01-23 21:53:00
5:53 PM,18.0,5.0,57,30.18,10.0,SSW,4.6,-,N/A,,Overcast,210,2013-01-23 22:53:00
6:53 PM,17.1,9.0,71,30.19,3.0,Calm,Calm,-,0.00,Snow,Light Snow,0,2013-01-23 23:53:00
7:28 PM,17.6,10.4,73,30.12,2.5,South,3.5,-,0.00,Snow,Light Snow,170,2013-01-24 00:28:00
7:53 PM,17.1,10.0,74,30.17,3.0,Calm,Calm,-,0.00,Snow,Light Snow,0,2013-01-24 00:53:00
8:53 PM,16.0,10.9,81,30.15,5.0,Calm,Calm,-,0.00,Snow,Light Snow,0,2013-01-24 01:53:00
9:53 PM,16.0,12.0,84,30.14,2.5,Calm,Calm,-,0.00,Snow,Light Snow,0,2013-01-24 02:53:00
10:20 PM,15.8,12.2,86,30.08,2.5,Calm,Calm,-,0.00,Snow,Light Snow,0,2013-01-24 03:20:00
10:30 PM,15.8,12.2,86,30.08,3.0,Calm,Calm,-,0.00,Snow,Light Snow,0,2013-01-24 03:30:00
10:46 PM,17.6,12.2,79,30.08,3.0,Calm,Calm,-,0.00,Snow,Light Snow,0,2013-01-24 03:46:00
10:53 PM,16.0,12.0,84,30.13,3.0,Calm,Calm,-,0.00,Snow,Light Snow,0,2013-01-24 03:53:00
11:30 PM,15.8,12.2,86,30.07,2.0,Calm,Calm,-,0.00,Snow,Light Snow,0,2013-01-24 04:30:00
11:38 PM,15.8,12.2,86,30.07,2.0,Calm,Calm,-,0.00,Snow,Light Snow,0,2013-01-24 04:38:00
11:53 PM,17.1,12.0,81,30.12,2.5,Calm,Calm,-,0.00,Snow,Light Snow,0,2013-01-24 04:53:00